sensor_id;sensor_type;location;lat;lon;timestamp;P1;durP1;ratioP1;P2;durP2;ratioP2
23543;SDS011;11950;51.230;4.012;2023-02-28T00:01:17;8.15;;;6.50;;
23543;SDS011;11950;51.230;4.012;2023-02-28T00:03:43;9.95;;;6.57;;
23543;SDS011;11950;51.230;4.012;2023-02-28T00:06:09;8.98;;;6.57;;
23543;SDS011;11950;51.230;4.012;2023-02-28T00:08:36;8.30;;;7.03;;
23543;SDS011;11950;51.230;4.012;2023-02-28T00:11:04;8.30;;;6.82;;
23543;SDS011;11950;51.230;4.012;2023-02-28T00:13:34;11.50;;;8.00;;
23543;SDS011;11950;51.230;4.012;2023-02-28T00:16:04;15.32;;;9.90;;
23543;SDS011;11950;51.230;4.012;2023-02-28T00:18:38;17.02;;;12.57;;
23543;SDS011;11950;51.230;4.012;2023-02-28T00:21:05;16.35;;;11.88;;
23543;SDS011;11950;51.230;4.012;2023-02-28T00:23:32;14.55;;;10.95;;
23543;SDS011;11950;51.230;4.012;2023-02-28T00:25:59;13.95;;;10.18;;
23543;SDS011;11950;51.230;4.012;2023-02-28T00:28:25;12.32;;;9.98;;
23543;SDS011;11950;51.230;4.012;2023-02-28T00:30:52;14.57;;;9.85;;
23543;SDS011;11950;51.230;4.012;2023-02-28T00:33:18;11.85;;;9.05;;
23543;SDS011;11950;51.230;4.012;2023-02-28T00:35:44;12.90;;;8.77;;
23543;SDS011;11950;51.230;4.012;2023-02-28T00:38:12;10.48;;;7.63;;
23543;SDS011;11950;51.230;4.012;2023-02-28T00:40:39;11.27;;;7.55;;
23543;SDS011;11950;51.230;4.012;2023-02-28T00:43:05;13.00;;;8.10;;
23543;SDS011;11950;51.230;4.012;2023-02-28T00:45:31;10.27;;;8.63;;
23543;SDS011;11950;51.230;4.012;2023-02-28T00:47:58;13.25;;;8.68;;
23543;SDS011;11950;51.230;4.012;2023-02-28T00:50:24;11.68;;;8.98;;
23543;SDS011;11950;51.230;4.012;2023-02-28T00:52:50;12.68;;;9.48;;
23543;SDS011;11950;51.230;4.012;2023-02-28T00:55:17;13.45;;;9.25;;
23543;SDS011;11950;51.230;4.012;2023-02-28T00:57:44;12.23;;;9.57;;
23543;SDS011;11950;51.230;4.012;2023-02-28T01:00:10;10.80;;;8.52;;
23543;SDS011;11950;51.230;4.012;2023-02-28T01:02:37;10.60;;;8.18;;
23543;SDS011;11950;51.230;4.012;2023-02-28T01:05:03;9.50;;;8.38;;
23543;SDS011;11950;51.230;4.012;2023-02-28T01:07:30;9.32;;;8.15;;
23543;SDS011;11950;51.230;4.012;2023-02-28T01:09:57;8.32;;;7.18;;
23543;SDS011;11950;51.230;4.012;2023-02-28T01:12:24;8.35;;;6.43;;
23543;SDS011;11950;51.230;4.012;2023-02-28T01:14:50;9.80;;;7.00;;
23543;SDS011;11950;51.230;4.012;2023-02-28T01:17:17;8.75;;;6.80;;
23543;SDS011;11950;51.230;4.012;2023-02-28T01:19:43;8.65;;;5.85;;
23543;SDS011;11950;51.230;4.012;2023-02-28T01:22:09;7.18;;;6.45;;
23543;SDS011;11950;51.230;4.012;2023-02-28T01:24:36;7.50;;;6.10;;
23543;SDS011;11950;51.230;4.012;2023-02-28T01:27:03;6.32;;;5.50;;
23543;SDS011;11950;51.230;4.012;2023-02-28T01:29:29;9.32;;;6.07;;
23543;SDS011;11950;51.230;4.012;2023-02-28T01:31:56;7.07;;;5.82;;
23543;SDS011;11950;51.230;4.012;2023-02-28T01:34:22;7.10;;;5.75;;
23543;SDS011;11950;51.230;4.012;2023-02-28T01:36:50;7.75;;;5.72;;
23543;SDS011;11950;51.230;4.012;2023-02-28T01:39:18;8.13;;;5.82;;
23543;SDS011;11950;51.230;4.012;2023-02-28T01:41:44;8.68;;;6.18;;
23543;SDS011;11950;51.230;4.012;2023-02-28T01:47:14;7.85;;;5.70;;
23543;SDS011;11950;51.230;4.012;2023-02-28T01:49:41;7.88;;;5.40;;
23543;SDS011;11950;51.230;4.012;2023-02-28T01:52:08;9.43;;;6.03;;
23543;SDS011;11950;51.230;4.012;2023-02-28T01:54:40;7.20;;;5.40;;
23543;SDS011;11950;51.230;4.012;2023-02-28T01:57:08;5.68;;;5.15;;
23543;SDS011;11950;51.230;4.012;2023-02-28T02:02:14;8.32;;;5.60;;
23543;SDS011;11950;51.230;4.012;2023-02-28T02:04:50;5.80;;;5.00;;
23543;SDS011;11950;51.230;4.012;2023-02-28T02:07:30;7.38;;;5.18;;
23543;SDS011;11950;51.230;4.012;2023-02-28T02:10:01;8.20;;;6.05;;
23543;SDS011;11950;51.230;4.012;2023-02-28T02:12:40;7.15;;;5.72;;
23543;SDS011;11950;51.230;4.012;2023-02-28T02:15:40;6.25;;;5.13;;
23543;SDS011;11950;51.230;4.012;2023-02-28T02:18:26;8.73;;;5.63;;
23543;SDS011;11950;51.230;4.012;2023-02-28T02:43:39;7.72;;;5.20;;
23543;SDS011;11950;51.230;4.012;2023-02-28T02:46:13;7.80;;;5.30;;
23543;SDS011;11950;51.230;4.012;2023-02-28T02:48:45;6.47;;;5.15;;
23543;SDS011;11950;51.230;4.012;2023-02-28T02:51:14;7.00;;;5.25;;
23543;SDS011;11950;51.230;4.012;2023-02-28T02:53:51;6.68;;;5.32;;
23543;SDS011;11950;51.230;4.012;2023-02-28T02:56:29;6.18;;;5.03;;
23543;SDS011;11950;51.230;4.012;2023-02-28T02:59:01;7.10;;;5.68;;
23543;SDS011;11950;51.230;4.012;2023-02-28T03:01:30;7.75;;;5.30;;
23543;SDS011;11950;51.230;4.012;2023-02-28T03:03:59;8.30;;;5.35;;
23543;SDS011;11950;51.230;4.012;2023-02-28T03:06:31;6.72;;;4.97;;
23543;SDS011;11950;51.230;4.012;2023-02-28T03:08:57;11.18;;;6.18;;
23543;SDS011;11950;51.230;4.012;2023-02-28T03:11:25;9.27;;;5.35;;
23543;SDS011;11950;51.230;4.012;2023-02-28T03:16:58;7.53;;;5.70;;
23543;SDS011;11950;51.230;4.012;2023-02-28T03:28:08;10.55;;;5.43;;
23543;SDS011;11950;51.230;4.012;2023-02-28T03:30:57;7.65;;;5.85;;
23543;SDS011;11950;51.230;4.012;2023-02-28T03:33:35;9.52;;;5.75;;
23543;SDS011;11950;51.230;4.012;2023-02-28T03:36:09;8.77;;;6.07;;
23543;SDS011;11950;51.230;4.012;2023-02-28T03:38:51;11.20;;;5.78;;
23543;SDS011;11950;51.230;4.012;2023-02-28T03:41:31;8.48;;;5.97;;
23543;SDS011;11950;51.230;4.012;2023-02-28T03:44:04;7.13;;;5.68;;
23543;SDS011;11950;51.230;4.012;2023-02-28T03:46:36;9.18;;;5.15;;
23543;SDS011;11950;51.230;4.012;2023-02-28T03:49:17;7.28;;;5.75;;
23543;SDS011;11950;51.230;4.012;2023-02-28T03:51:56;6.93;;;5.45;;
23543;SDS011;11950;51.230;4.012;2023-02-28T03:54:27;8.45;;;6.05;;
23543;SDS011;11950;51.230;4.012;2023-02-28T03:59:38;7.00;;;5.97;;
23543;SDS011;11950;51.230;4.012;2023-02-28T04:02:08;5.85;;;4.75;;
23543;SDS011;11950;51.230;4.012;2023-02-28T04:04:35;8.93;;;5.63;;
23543;SDS011;11950;51.230;4.012;2023-02-28T04:07:05;7.53;;;5.72;;
23543;SDS011;11950;51.230;4.012;2023-02-28T04:09:33;10.32;;;5.13;;
23543;SDS011;11950;51.230;4.012;2023-02-28T04:12:00;8.85;;;5.43;;
23543;SDS011;11950;51.230;4.012;2023-02-28T04:14:26;8.40;;;5.43;;
23543;SDS011;11950;51.230;4.012;2023-02-28T04:16:53;8.23;;;5.18;;
23543;SDS011;11950;51.230;4.012;2023-02-28T04:19:19;7.32;;;5.25;;
23543;SDS011;11950;51.230;4.012;2023-02-28T04:21:54;7.60;;;5.35;;
23543;SDS011;11950;51.230;4.012;2023-02-28T04:24:25;11.35;;;5.85;;
23543;SDS011;11950;51.230;4.012;2023-02-28T04:26:54;7.28;;;5.38;;
23543;SDS011;11950;51.230;4.012;2023-02-28T04:29:26;8.60;;;5.07;;
23543;SDS011;11950;51.230;4.012;2023-02-28T04:31:52;6.67;;;5.20;;
23543;SDS011;11950;51.230;4.012;2023-02-28T04:34:20;8.27;;;5.07;;
23543;SDS011;11950;51.230;4.012;2023-02-28T04:36:47;6.13;;;4.97;;
23543;SDS011;11950;51.230;4.012;2023-02-28T04:39:19;5.50;;;4.90;;
23543;SDS011;11950;51.230;4.012;2023-02-28T04:41:46;8.65;;;4.80;;
23543;SDS011;11950;51.230;4.012;2023-02-28T04:44:13;6.80;;;5.28;;
23543;SDS011;11950;51.230;4.012;2023-02-28T04:46:40;6.53;;;4.95;;
23543;SDS011;11950;51.230;4.012;2023-02-28T04:49:08;7.03;;;5.25;;
23543;SDS011;11950;51.230;4.012;2023-02-28T04:51:38;5.45;;;4.85;;
23543;SDS011;11950;51.230;4.012;2023-02-28T04:54:05;7.30;;;4.60;;
23543;SDS011;11950;51.230;4.012;2023-02-28T04:56:32;6.68;;;4.82;;
23543;SDS011;11950;51.230;4.012;2023-02-28T04:58:58;5.28;;;4.13;;
23543;SDS011;11950;51.230;4.012;2023-02-28T05:01:28;9.90;;;5.05;;
23543;SDS011;11950;51.230;4.012;2023-02-28T05:04:00;6.43;;;4.18;;
23543;SDS011;11950;51.230;4.012;2023-02-28T05:06:28;5.32;;;4.47;;
23543;SDS011;11950;51.230;4.012;2023-02-28T05:08:55;10.60;;;4.55;;
23543;SDS011;11950;51.230;4.012;2023-02-28T05:11:23;7.70;;;4.80;;
23543;SDS011;11950;51.230;4.012;2023-02-28T05:13:52;8.48;;;4.90;;
23543;SDS011;11950;51.230;4.012;2023-02-28T05:16:19;5.75;;;4.72;;
23543;SDS011;11950;51.230;4.012;2023-02-28T05:18:46;8.73;;;5.10;;
23543;SDS011;11950;51.230;4.012;2023-02-28T05:21:34;6.35;;;5.10;;
23543;SDS011;11950;51.230;4.012;2023-02-28T05:24:09;6.70;;;5.07;;
23543;SDS011;11950;51.230;4.012;2023-02-28T05:29:05;6.28;;;4.70;;
23543;SDS011;11950;51.230;4.012;2023-02-28T05:31:31;6.43;;;5.35;;
23543;SDS011;11950;51.230;4.012;2023-02-28T05:33:58;7.93;;;5.43;;
23543;SDS011;11950;51.230;4.012;2023-02-28T05:36:24;7.57;;;5.03;;
23543;SDS011;11950;51.230;4.012;2023-02-28T05:38:51;9.23;;;4.93;;
23543;SDS011;11950;51.230;4.012;2023-02-28T05:41:18;8.38;;;5.68;;
23543;SDS011;11950;51.230;4.012;2023-02-28T05:43:45;11.18;;;5.32;;
23543;SDS011;11950;51.230;4.012;2023-02-28T05:46:12;6.25;;;5.07;;
23543;SDS011;11950;51.230;4.012;2023-02-28T05:48:39;6.90;;;5.18;;
23543;SDS011;11950;51.230;4.012;2023-02-28T05:51:07;7.00;;;4.95;;
23543;SDS011;11950;51.230;4.012;2023-02-28T05:53:34;9.95;;;5.10;;
23543;SDS011;11950;51.230;4.012;2023-02-28T05:56:01;7.72;;;5.57;;
23543;SDS011;11950;51.230;4.012;2023-02-28T05:58:28;8.30;;;5.70;;
23543;SDS011;11950;51.230;4.012;2023-02-28T06:00:59;10.00;;;6.13;;
23543;SDS011;11950;51.230;4.012;2023-02-28T06:03:26;10.48;;;6.22;;
23543;SDS011;11950;51.230;4.012;2023-02-28T06:05:53;6.65;;;4.75;;
23543;SDS011;11950;51.230;4.012;2023-02-28T06:08:19;8.68;;;5.22;;
23543;SDS011;11950;51.230;4.012;2023-02-28T06:10:46;7.65;;;5.53;;
23543;SDS011;11950;51.230;4.012;2023-02-28T06:13:12;7.32;;;5.30;;
23543;SDS011;11950;51.230;4.012;2023-02-28T06:15:38;7.82;;;5.82;;
23543;SDS011;11950;51.230;4.012;2023-02-28T06:18:05;8.52;;;5.75;;
23543;SDS011;11950;51.230;4.012;2023-02-28T06:20:32;6.47;;;4.88;;
23543;SDS011;11950;51.230;4.012;2023-02-28T06:22:59;9.23;;;5.18;;
23543;SDS011;11950;51.230;4.012;2023-02-28T06:25:26;9.57;;;5.13;;
23543;SDS011;11950;51.230;4.012;2023-02-28T06:27:53;8.07;;;5.07;;
23543;SDS011;11950;51.230;4.012;2023-02-28T06:30:20;6.63;;;4.68;;
23543;SDS011;11950;51.230;4.012;2023-02-28T06:32:52;7.53;;;4.85;;
23543;SDS011;11950;51.230;4.012;2023-02-28T06:35:20;9.43;;;5.28;;
23543;SDS011;11950;51.230;4.012;2023-02-28T06:37:46;7.57;;;5.63;;
23543;SDS011;11950;51.230;4.012;2023-02-28T06:40:13;9.10;;;4.80;;
23543;SDS011;11950;51.230;4.012;2023-02-28T06:42:39;7.30;;;5.28;;
23543;SDS011;11950;51.230;4.012;2023-02-28T06:45:06;5.47;;;4.38;;
23543;SDS011;11950;51.230;4.012;2023-02-28T06:47:35;7.57;;;5.13;;
23543;SDS011;11950;51.230;4.012;2023-02-28T06:50:03;5.03;;;4.30;;
23543;SDS011;11950;51.230;4.012;2023-02-28T06:52:30;6.38;;;4.68;;
23543;SDS011;11950;51.230;4.012;2023-02-28T06:54:56;6.05;;;4.32;;
23543;SDS011;11950;51.230;4.012;2023-02-28T06:57:27;6.20;;;4.30;;
23543;SDS011;11950;51.230;4.012;2023-02-28T06:59:58;8.40;;;4.15;;
23543;SDS011;11950;51.230;4.012;2023-02-28T07:02:26;6.88;;;4.43;;
23543;SDS011;11950;51.230;4.012;2023-02-28T07:04:53;5.43;;;3.78;;
23543;SDS011;11950;51.230;4.012;2023-02-28T07:07:19;7.18;;;4.00;;
23543;SDS011;11950;51.230;4.012;2023-02-28T07:09:46;4.10;;;3.05;;
23543;SDS011;11950;51.230;4.012;2023-02-28T07:12:12;4.57;;;3.15;;
23543;SDS011;11950;51.230;4.012;2023-02-28T07:14:39;3.92;;;2.70;;
23543;SDS011;11950;51.230;4.012;2023-02-28T07:17:06;4.47;;;2.97;;
23543;SDS011;11950;51.230;4.012;2023-02-28T07:19:38;4.22;;;2.42;;
23543;SDS011;11950;51.230;4.012;2023-02-28T07:22:05;4.35;;;2.38;;
23543;SDS011;11950;51.230;4.012;2023-02-28T07:24:31;3.15;;;2.10;;
23543;SDS011;11950;51.230;4.012;2023-02-28T07:26:58;2.90;;;1.95;;
23543;SDS011;11950;51.230;4.012;2023-02-28T07:29:25;2.45;;;2.03;;
23543;SDS011;11950;51.230;4.012;2023-02-28T07:31:51;2.45;;;2.10;;
23543;SDS011;11950;51.230;4.012;2023-02-28T07:34:21;5.50;;;1.65;;
23543;SDS011;11950;51.230;4.012;2023-02-28T07:36:48;4.30;;;1.75;;
23543;SDS011;11950;51.230;4.012;2023-02-28T07:39:14;4.00;;;2.03;;
23543;SDS011;11950;51.230;4.012;2023-02-28T07:41:41;3.45;;;1.83;;
23543;SDS011;11950;51.230;4.012;2023-02-28T07:44:09;2.75;;;1.88;;
23543;SDS011;11950;51.230;4.012;2023-02-28T07:46:39;2.50;;;1.90;;
23543;SDS011;11950;51.230;4.012;2023-02-28T07:49:05;5.53;;;2.25;;
23543;SDS011;11950;51.230;4.012;2023-02-28T07:51:32;4.20;;;2.28;;
23543;SDS011;11950;51.230;4.012;2023-02-28T07:53:58;3.42;;;2.45;;
23543;SDS011;11950;51.230;4.012;2023-02-28T07:56:25;2.42;;;2.22;;
23543;SDS011;11950;51.230;4.012;2023-02-28T07:58:51;2.95;;;2.00;;
23543;SDS011;11950;51.230;4.012;2023-02-28T08:01:17;3.80;;;2.55;;
23543;SDS011;11950;51.230;4.012;2023-02-28T08:03:45;5.07;;;2.78;;
23543;SDS011;11950;51.230;4.012;2023-02-28T08:06:16;4.80;;;3.33;;
23543;SDS011;11950;51.230;4.012;2023-02-28T08:08:45;5.70;;;2.65;;
23543;SDS011;11950;51.230;4.012;2023-02-28T08:11:11;4.32;;;3.08;;
23543;SDS011;11950;51.230;4.012;2023-02-28T08:13:38;4.43;;;3.20;;
23543;SDS011;11950;51.230;4.012;2023-02-28T08:16:04;6.65;;;3.40;;
23543;SDS011;11950;51.230;4.012;2023-02-28T08:18:31;6.13;;;3.60;;
23543;SDS011;11950;51.230;4.012;2023-02-28T08:20:58;5.00;;;3.72;;
23543;SDS011;11950;51.230;4.012;2023-02-28T08:23:24;9.18;;;4.88;;
23543;SDS011;11950;51.230;4.012;2023-02-28T08:25:57;7.35;;;4.13;;
23543;SDS011;11950;51.230;4.012;2023-02-28T08:28:23;5.40;;;3.90;;
23543;SDS011;11950;51.230;4.012;2023-02-28T08:30:49;8.23;;;4.47;;
23543;SDS011;11950;51.230;4.012;2023-02-28T08:33:16;6.80;;;4.28;;
23543;SDS011;11950;51.230;4.012;2023-02-28T08:35:42;6.13;;;4.30;;
23543;SDS011;11950;51.230;4.012;2023-02-28T08:38:08;9.27;;;4.70;;
23543;SDS011;11950;51.230;4.012;2023-02-28T08:40:35;7.57;;;4.97;;
23543;SDS011;11950;51.230;4.012;2023-02-28T08:43:01;9.35;;;5.10;;
23543;SDS011;11950;51.230;4.012;2023-02-28T08:45:27;7.35;;;4.47;;
23543;SDS011;11950;51.230;4.012;2023-02-28T08:47:54;6.97;;;4.80;;
23543;SDS011;11950;51.230;4.012;2023-02-28T08:50:21;7.03;;;5.00;;
23543;SDS011;11950;51.230;4.012;2023-02-28T08:52:47;7.57;;;4.57;;
23543;SDS011;11950;51.230;4.012;2023-02-28T08:55:14;7.47;;;4.55;;
23543;SDS011;11950;51.230;4.012;2023-02-28T08:57:40;5.68;;;4.22;;
23543;SDS011;11950;51.230;4.012;2023-02-28T09:00:07;6.25;;;4.97;;
23543;SDS011;11950;51.230;4.012;2023-02-28T09:02:33;7.28;;;4.63;;
23543;SDS011;11950;51.230;4.012;2023-02-28T09:05:00;7.90;;;4.78;;
23543;SDS011;11950;51.230;4.012;2023-02-28T09:07:26;5.72;;;4.70;;
23543;SDS011;11950;51.230;4.012;2023-02-28T09:09:52;5.43;;;4.00;;
23543;SDS011;11950;51.230;4.012;2023-02-28T09:12:21;5.88;;;4.03;;
23543;SDS011;11950;51.230;4.012;2023-02-28T09:14:48;5.65;;;3.53;;
23543;SDS011;11950;51.230;4.012;2023-02-28T09:17:14;5.85;;;4.07;;
23543;SDS011;11950;51.230;4.012;2023-02-28T09:19:40;8.07;;;3.55;;
23543;SDS011;11950;51.230;4.012;2023-02-28T09:22:08;4.50;;;3.30;;
23543;SDS011;11950;51.230;4.012;2023-02-28T09:24:35;4.03;;;3.63;;
23543;SDS011;11950;51.230;4.012;2023-02-28T09:27:03;3.45;;;3.13;;
23543;SDS011;11950;51.230;4.012;2023-02-28T09:29:30;5.43;;;3.40;;
23543;SDS011;11950;51.230;4.012;2023-02-28T09:31:57;4.47;;;3.00;;
23543;SDS011;11950;51.230;4.012;2023-02-28T09:34:24;5.43;;;2.25;;
23543;SDS011;11950;51.230;4.012;2023-02-28T09:36:51;4.25;;;2.10;;
23543;SDS011;11950;51.230;4.012;2023-02-28T09:39:20;3.30;;;1.77;;
23543;SDS011;11950;51.230;4.012;2023-02-28T09:41:49;3.40;;;2.25;;
23543;SDS011;11950;51.230;4.012;2023-02-28T09:49:42;2.35;;;1.83;;
23543;SDS011;11950;51.230;4.012;2023-02-28T09:52:19;4.63;;;1.90;;
23543;SDS011;11950;51.230;4.012;2023-02-28T09:54:49;6.50;;;1.77;;
23543;SDS011;11950;51.230;4.012;2023-02-28T10:02:46;2.67;;;1.60;;
23543;SDS011;11950;51.230;4.012;2023-02-28T10:05:24;5.65;;;1.75;;
23543;SDS011;11950;51.230;4.012;2023-02-28T10:10:48;3.15;;;1.70;;
23543;SDS011;11950;51.230;4.012;2023-02-28T10:13:23;3.17;;;1.83;;
23543;SDS011;11950;51.230;4.012;2023-02-28T10:15:58;2.13;;;1.40;;
23543;SDS011;11950;51.230;4.012;2023-02-28T10:18:35;2.40;;;1.80;;
23543;SDS011;11950;51.230;4.012;2023-02-28T10:21:15;4.32;;;1.83;;
23543;SDS011;11950;51.230;4.012;2023-02-28T10:23:46;3.17;;;1.92;;
23543;SDS011;11950;51.230;4.012;2023-02-28T10:26:14;4.82;;;1.55;;
23543;SDS011;11950;51.230;4.012;2023-02-28T10:28:43;2.80;;;1.50;;
23543;SDS011;11950;51.230;4.012;2023-02-28T10:31:17;3.58;;;1.52;;
23543;SDS011;11950;51.230;4.012;2023-02-28T10:33:45;1.90;;;1.50;;
23543;SDS011;11950;51.230;4.012;2023-02-28T10:36:13;3.47;;;1.70;;
23543;SDS011;11950;51.230;4.012;2023-02-28T10:38:42;1.52;;;1.40;;
23543;SDS011;11950;51.230;4.012;2023-02-28T10:41:13;2.90;;;1.55;;
23543;SDS011;11950;51.230;4.012;2023-02-28T10:43:43;3.35;;;1.70;;
23543;SDS011;11950;51.230;4.012;2023-02-28T10:46:13;2.17;;;1.80;;
23543;SDS011;11950;51.230;4.012;2023-02-28T10:49:02;2.85;;;1.90;;
23543;SDS011;11950;51.230;4.012;2023-02-28T10:51:34;4.45;;;2.50;;
23543;SDS011;11950;51.230;4.012;2023-02-28T10:54:05;11.57;;;4.32;;
23543;SDS011;11950;51.230;4.012;2023-02-28T10:57:21;3.60;;;1.77;;
23543;SDS011;11950;51.230;4.012;2023-02-28T10:59:52;2.05;;;1.42;;
23543;SDS011;11950;51.230;4.012;2023-02-28T11:02:32;2.78;;;1.58;;
23543;SDS011;11950;51.230;4.012;2023-02-28T11:05:00;3.15;;;2.05;;
23543;SDS011;11950;51.230;4.012;2023-02-28T11:07:27;3.40;;;1.83;;
23543;SDS011;11950;51.230;4.012;2023-02-28T11:09:54;2.22;;;1.65;;
23543;SDS011;11950;51.230;4.012;2023-02-28T11:12:23;2.00;;;1.67;;
23543;SDS011;11950;51.230;4.012;2023-02-28T11:15:01;3.13;;;1.60;;
23543;SDS011;11950;51.230;4.012;2023-02-28T11:20:29;2.92;;;1.60;;
23543;SDS011;11950;51.230;4.012;2023-02-28T11:22:58;1.88;;;1.60;;
23543;SDS011;11950;51.230;4.012;2023-02-28T11:25:32;1.98;;;1.73;;
23543;SDS011;11950;51.230;4.012;2023-02-28T11:28:04;2.88;;;1.80;;
23543;SDS011;11950;51.230;4.012;2023-02-28T11:32:59;3.20;;;1.70;;
23543;SDS011;11950;51.230;4.012;2023-02-28T11:35:44;2.20;;;1.73;;
23543;SDS011;11950;51.230;4.012;2023-02-28T11:38:13;2.47;;;1.80;;
23543;SDS011;11950;51.230;4.012;2023-02-28T11:43:30;1.60;;;1.50;;
23543;SDS011;11950;51.230;4.012;2023-02-28T11:51:33;1.67;;;1.45;;
23543;SDS011;11950;51.230;4.012;2023-02-28T11:57:50;2.08;;;1.40;;
23543;SDS011;11950;51.230;4.012;2023-02-28T11:59:51;2.30;;;1.30;;
23543;SDS011;11950;51.230;4.012;2023-02-28T12:02:26;2.35;;;1.27;;
23543;SDS011;11950;51.230;4.012;2023-02-28T12:13:48;2.25;;;1.38;;
23543;SDS011;11950;51.230;4.012;2023-02-28T12:19:13;3.38;;;1.30;;
23543;SDS011;11950;51.230;4.012;2023-02-28T12:27:12;1.40;;;1.30;;
23543;SDS011;11950;51.230;4.012;2023-02-28T12:29:49;2.20;;;1.23;;
23543;SDS011;11950;51.230;4.012;2023-02-28T12:32:40;3.33;;;1.20;;
23543;SDS011;11950;51.230;4.012;2023-02-28T12:40:19;3.67;;;1.40;;
23543;SDS011;11950;51.230;4.012;2023-02-28T12:43:00;1.40;;;1.30;;
23543;SDS011;11950;51.230;4.012;2023-02-28T12:45:40;1.90;;;1.20;;
23543;SDS011;11950;51.230;4.012;2023-02-28T12:48:26;1.80;;;1.10;;
23543;SDS011;11950;51.230;4.012;2023-02-28T12:51:01;1.60;;;1.27;;
23543;SDS011;11950;51.230;4.012;2023-02-28T12:56:09;1.20;;;1.10;;
23543;SDS011;11950;51.230;4.012;2023-02-28T12:58:43;1.77;;;1.20;;
23543;SDS011;11950;51.230;4.012;2023-02-28T13:01:30;1.30;;;1.20;;
23543;SDS011;11950;51.230;4.012;2023-02-28T13:09:24;2.58;;;1.55;;
23543;SDS011;11950;51.230;4.012;2023-02-28T13:11:53;1.77;;;1.30;;
23543;SDS011;11950;51.230;4.012;2023-02-28T13:14:37;1.50;;;1.30;;
23543;SDS011;11950;51.230;4.012;2023-02-28T13:19:37;2.17;;;1.40;;
23543;SDS011;11950;51.230;4.012;2023-02-28T13:22:51;1.92;;;1.20;;
23543;SDS011;11950;51.230;4.012;2023-02-28T13:27:34;1.50;;;1.40;;
23543;SDS011;11950;51.230;4.012;2023-02-28T13:35:45;2.03;;;1.38;;
23543;SDS011;11950;51.230;4.012;2023-02-28T13:38:17;1.98;;;1.50;;
23543;SDS011;11950;51.230;4.012;2023-02-28T13:41:09;2.35;;;1.55;;
23543;SDS011;11950;51.230;4.012;2023-02-28T13:44:08;3.85;;;1.65;;
23543;SDS011;11950;51.230;4.012;2023-02-28T13:47:23;4.00;;;1.50;;
23543;SDS011;11950;51.230;4.012;2023-02-28T13:51:50;1.92;;;1.70;;
23543;SDS011;11950;51.230;4.012;2023-02-28T13:54:24;4.30;;;2.03;;
23543;SDS011;11950;51.230;4.012;2023-02-28T13:57:23;1.63;;;1.50;;
23543;SDS011;11950;51.230;4.012;2023-02-28T14:05:29;3.00;;;1.83;;
23543;SDS011;11950;51.230;4.012;2023-02-28T14:07:58;2.03;;;1.80;;
23543;SDS011;11950;51.230;4.012;2023-02-28T14:10:31;1.50;;;1.40;;
23543;SDS011;11950;51.230;4.012;2023-02-28T14:13:10;3.35;;;1.90;;
23543;SDS011;11950;51.230;4.012;2023-02-28T14:18:13;3.40;;;1.60;;
23543;SDS011;11950;51.230;4.012;2023-02-28T14:20:47;1.85;;;1.60;;
23543;SDS011;11950;51.230;4.012;2023-02-28T14:23:24;2.17;;;1.73;;
23543;SDS011;11950;51.230;4.012;2023-02-28T14:28:41;2.55;;;1.90;;
23543;SDS011;11950;51.230;4.012;2023-02-28T14:31:29;1.60;;;1.50;;
23543;SDS011;11950;51.230;4.012;2023-02-28T14:34:12;1.80;;;1.70;;
23543;SDS011;11950;51.230;4.012;2023-02-28T14:36:42;2.60;;;1.95;;
23543;SDS011;11950;51.230;4.012;2023-02-28T14:39:19;2.88;;;1.70;;
23543;SDS011;11950;51.230;4.012;2023-02-28T14:41:47;3.05;;;1.67;;
23543;SDS011;11950;51.230;4.012;2023-02-28T14:44:24;2.67;;;1.90;;
23543;SDS011;11950;51.230;4.012;2023-02-28T14:46:52;1.80;;;1.67;;
23543;SDS011;11950;51.230;4.012;2023-02-28T14:49:27;3.17;;;1.75;;
23543;SDS011;11950;51.230;4.012;2023-02-28T14:55:03;1.98;;;1.70;;
23543;SDS011;11950;51.230;4.012;2023-02-28T14:57:33;3.60;;;2.35;;
23543;SDS011;11950;51.230;4.012;2023-02-28T15:00:15;2.70;;;1.83;;
23543;SDS011;11950;51.230;4.012;2023-02-28T15:02:42;1.90;;;1.80;;
23543;SDS011;11950;51.230;4.012;2023-02-28T15:07:35;3.05;;;1.85;;
23543;SDS011;11950;51.230;4.012;2023-02-28T15:10:09;4.47;;;2.00;;
23543;SDS011;11950;51.230;4.012;2023-02-28T15:12:54;3.30;;;2.17;;
23543;SDS011;11950;51.230;4.012;2023-02-28T15:16:11;5.47;;;2.30;;
23543;SDS011;11950;51.230;4.012;2023-02-28T15:21:17;3.10;;;2.80;;
23543;SDS011;11950;51.230;4.012;2023-02-28T15:23:50;2.80;;;2.33;;
23543;SDS011;11950;51.230;4.012;2023-02-28T15:26:23;3.95;;;2.25;;
23543;SDS011;11950;51.230;4.012;2023-02-28T15:28:56;2.17;;;2.00;;
23543;SDS011;11950;51.230;4.012;2023-02-28T15:31:27;2.40;;;1.75;;
23543;SDS011;11950;51.230;4.012;2023-02-28T15:33:58;2.35;;;1.92;;
23543;SDS011;11950;51.230;4.012;2023-02-28T15:36:30;2.45;;;1.88;;
23543;SDS011;11950;51.230;4.012;2023-02-28T15:38:59;3.33;;;2.22;;
23543;SDS011;11950;51.230;4.012;2023-02-28T15:44:13;4.43;;;2.17;;
23543;SDS011;11950;51.230;4.012;2023-02-28T15:46:44;2.40;;;2.20;;
23543;SDS011;11950;51.230;4.012;2023-02-28T15:49:20;1.92;;;1.75;;
23543;SDS011;11950;51.230;4.012;2023-02-28T15:51:48;2.88;;;2.05;;
23543;SDS011;11950;51.230;4.012;2023-02-28T15:54:38;3.33;;;2.30;;
23543;SDS011;11950;51.230;4.012;2023-02-28T15:57:07;2.08;;;1.85;;
23543;SDS011;11950;51.230;4.012;2023-02-28T15:59:39;3.35;;;2.00;;
23543;SDS011;11950;51.230;4.012;2023-02-28T16:07:23;2.55;;;2.30;;
23543;SDS011;11950;51.230;4.012;2023-02-28T16:09:51;2.50;;;2.30;;
23543;SDS011;11950;51.230;4.012;2023-02-28T16:12:18;3.22;;;2.90;;
23543;SDS011;11950;51.230;4.012;2023-02-28T16:14:46;3.95;;;2.30;;
23543;SDS011;11950;51.230;4.012;2023-02-28T16:17:23;3.42;;;2.35;;
23543;SDS011;11950;51.230;4.012;2023-02-28T16:19:52;3.88;;;2.17;;
23543;SDS011;11950;51.230;4.012;2023-02-28T16:22:19;8.85;;;2.38;;
23543;SDS011;11950;51.230;4.012;2023-02-28T16:24:45;2.38;;;2.15;;
23543;SDS011;11950;51.230;4.012;2023-02-28T16:27:19;3.15;;;2.03;;
23543;SDS011;11950;51.230;4.012;2023-02-28T16:29:58;2.63;;;2.42;;
23543;SDS011;11950;51.230;4.012;2023-02-28T16:32:25;2.97;;;2.60;;
23543;SDS011;11950;51.230;4.012;2023-02-28T16:34:52;3.00;;;2.70;;
23543;SDS011;11950;51.230;4.012;2023-02-28T16:37:19;2.88;;;2.50;;
23543;SDS011;11950;51.230;4.012;2023-02-28T16:39:46;3.30;;;2.63;;
23543;SDS011;11950;51.230;4.012;2023-02-28T16:42:17;3.10;;;2.53;;
23543;SDS011;11950;51.230;4.012;2023-02-28T16:44:50;5.10;;;2.80;;
23543;SDS011;11950;51.230;4.012;2023-02-28T16:47:17;2.80;;;2.60;;
23543;SDS011;11950;51.230;4.012;2023-02-28T16:49:44;2.92;;;2.40;;
23543;SDS011;11950;51.230;4.012;2023-02-28T16:52:10;2.80;;;2.50;;
23543;SDS011;11950;51.230;4.012;2023-02-28T16:54:40;3.35;;;2.30;;
23543;SDS011;11950;51.230;4.012;2023-02-28T16:57:15;2.42;;;2.22;;
23543;SDS011;11950;51.230;4.012;2023-02-28T16:59:46;4.18;;;2.10;;
23543;SDS011;11950;51.230;4.012;2023-02-28T17:02:14;2.67;;;2.47;;
23543;SDS011;11950;51.230;4.012;2023-02-28T17:04:42;3.80;;;2.50;;
23543;SDS011;11950;51.230;4.012;2023-02-28T17:07:10;3.42;;;2.47;;
23543;SDS011;11950;51.230;4.012;2023-02-28T17:09:38;2.45;;;2.25;;
23543;SDS011;11950;51.230;4.012;2023-02-28T17:12:04;2.47;;;2.28;;
23543;SDS011;11950;51.230;4.012;2023-02-28T17:14:31;2.97;;;2.25;;
23543;SDS011;11950;51.230;4.012;2023-02-28T17:16:57;4.60;;;2.67;;
23543;SDS011;11950;51.230;4.012;2023-02-28T17:19:24;2.30;;;2.10;;
23543;SDS011;11950;51.230;4.012;2023-02-28T17:21:50;2.35;;;2.15;;
23543;SDS011;11950;51.230;4.012;2023-02-28T17:24:16;2.80;;;2.50;;
23543;SDS011;11950;51.230;4.012;2023-02-28T17:26:42;3.35;;;2.50;;
23543;SDS011;11950;51.230;4.012;2023-02-28T17:29:18;2.97;;;2.50;;
23543;SDS011;11950;51.230;4.012;2023-02-28T17:31:46;2.70;;;2.40;;